sensor_id;sensor_type;location;lat;lon;timestamp;pressure;altitude;pressure_sealevel;temperature;humidity
10310;BME280;5200;43.236;27.986;2023-02-19T00:01:41;99927.88;;;10.81;69.43
10310;BME280;5200;43.236;27.986;2023-02-19T00:04:11;99965.38;;;11.02;69.30
10310;BME280;5200;43.236;27.986;2023-02-19T00:06:38;99929.38;;;10.83;69.36
10310;BME280;5200;43.236;27.986;2023-02-19T00:09:05;99955.25;;;10.97;69.30
10310;BME280;5200;43.236;27.986;2023-02-19T00:11:33;99935.22;;;10.87;69.25
10310;BME280;5200;43.236;27.986;2023-02-19T00:14:02;99932.31;;;10.80;69.51
10310;BME280;5200;43.236;27.986;2023-02-19T00:16:31;99901.31;;;10.54;69.61
10310;BME280;5200;43.236;27.986;2023-02-19T00:18:59;99919.59;;;10.66;69.72
10310;BME280;5200;43.236;27.986;2023-02-19T00:21:27;99901.31;;;10.54;69.75
10310;BME280;5200;43.236;27.986;2023-02-19T00:23:55;99943.09;;;10.77;69.67
10310;BME280;5200;43.236;27.986;2023-02-19T00:26:24;99897.44;;;10.58;69.19
10310;BME280;5200;43.236;27.986;2023-02-19T00:28:51;99929.09;;;10.76;68.88
10310;BME280;5200;43.236;27.986;2023-02-19T00:31:21;99942.53;;;10.83;68.27
10310;BME280;5200;43.236;27.986;2023-02-19T00:33:50;99937.28;;;10.83;67.96
10310;BME280;5200;43.236;27.986;2023-02-19T00:36:18;99931.06;;;10.84;67.92
10310;BME280;5200;43.236;27.986;2023-02-19T00:38:44;99931.75;;;10.76;67.96
10310;BME280;5200;43.236;27.986;2023-02-19T00:41:13;99928.16;;;10.68;67.96
10310;BME280;5200;43.236;27.986;2023-02-19T00:43:47;99920.69;;;10.63;68.25
10310;BME280;5200;43.236;27.986;2023-02-19T00:46:15;99913.22;;;10.58;68.22
10310;BME280;5200;43.236;27.986;2023-02-19T00:48:44;99916.53;;;10.51;68.34
10310;BME280;5200;43.236;27.986;2023-02-19T00:51:11;99894.94;;;10.47;68.21
10310;BME280;5200;43.236;27.986;2023-02-19T00:53:38;99874.19;;;10.34;68.15
10310;BME280;5200;43.236;27.986;2023-02-19T00:56:05;99888.59;;;10.40;68.58
10310;BME280;5200;43.236;27.986;2023-02-19T00:58:32;99887.06;;;10.38;68.17
10310;BME280;5200;43.236;27.986;2023-02-19T01:00:59;99880.41;;;10.33;68.60
10310;BME280;5200;43.236;27.986;2023-02-19T01:03:27;99866.97;;;10.27;68.46
10310;BME280;5200;43.236;27.986;2023-02-19T01:05:55;99870.31;;;10.29;68.56
10310;BME280;5200;43.236;27.986;2023-02-19T01:08:22;99835.28;;;10.09;68.43
10310;BME280;5200;43.236;27.986;2023-02-19T01:10:49;99864.78;;;10.32;68.45
10310;BME280;5200;43.236;27.986;2023-02-19T01:13:15;99841.66;;;10.26;67.83
10310;BME280;5200;43.236;27.986;2023-02-19T01:19:04;99840.94;;;10.53;67.04
10310;BME280;5200;43.236;27.986;2023-02-19T01:21:32;99859.34;;;10.53;66.65
10310;BME280;5200;43.236;27.986;2023-02-19T01:23:59;99855.34;;;10.58;66.69
10310;BME280;5200;43.236;27.986;2023-02-19T01:26:28;99828.78;;;10.52;66.57
10310;BME280;5200;43.236;27.986;2023-02-19T01:28:55;99839.13;;;10.63;66.56
10310;BME280;5200;43.236;27.986;2023-02-19T01:31:23;99817.94;;;10.65;66.49
10310;BME280;5200;43.236;27.986;2023-02-19T01:33:51;99812.16;;;10.51;66.16
10310;BME280;5200;43.236;27.986;2023-02-19T01:36:19;99840.06;;;10.72;65.93
10310;BME280;5200;43.236;27.986;2023-02-19T01:38:47;99825.78;;;10.74;65.79
10310;BME280;5200;43.236;27.986;2023-02-19T01:41:16;99825.66;;;10.76;65.80
10310;BME280;5200;43.236;27.986;2023-02-19T01:43:55;99824.81;;;10.85;65.76
10310;BME280;5200;43.236;27.986;2023-02-19T01:46:24;99809.44;;;10.81;65.75
10310;BME280;5200;43.236;27.986;2023-02-19T01:48:51;99809.00;;;10.85;65.69
10310;BME280;5200;43.236;27.986;2023-02-19T01:51:19;99788.53;;;10.79;65.82
10310;BME280;5200;43.236;27.986;2023-02-19T01:53:51;99807.31;;;10.94;65.77
10310;BME280;5200;43.236;27.986;2023-02-19T01:56:20;99741.63;;;10.65;65.78
10310;BME280;5200;43.236;27.986;2023-02-19T01:58:47;99798.56;;;11.03;65.27
10310;BME280;5200;43.236;27.986;2023-02-19T02:01:14;99805.59;;;11.12;64.85
10310;BME280;5200;43.236;27.986;2023-02-19T02:03:43;99802.47;;;11.17;64.71
10310;BME280;5200;43.236;27.986;2023-02-19T02:06:17;99764.78;;;10.98;64.63
10310;BME280;5200;43.236;27.986;2023-02-19T02:08:50;99791.44;;;11.13;64.60
10310;BME280;5200;43.236;27.986;2023-02-19T02:11:34;99762.28;;;10.97;64.31
10310;BME280;5200;43.236;27.986;2023-02-19T02:14:02;99800.25;;;11.22;64.53
10310;BME280;5200;43.236;27.986;2023-02-19T02:16:37;99810.50;;;11.25;64.33
10310;BME280;5200;43.236;27.986;2023-02-19T02:19:20;99788.41;;;11.08;64.53
10310;BME280;5200;43.236;27.986;2023-02-19T02:21:54;99804.16;;;11.18;64.46
10310;BME280;5200;43.236;27.986;2023-02-19T02:27:50;99774.59;;;10.96;64.41
10310;BME280;5200;43.236;27.986;2023-02-19T02:30:32;99795.50;;;11.08;63.90
10310;BME280;5200;43.236;27.986;2023-02-19T02:33:05;99813.44;;;11.22;63.60
10310;BME280;5200;43.236;27.986;2023-02-19T02:35:39;99789.22;;;11.09;63.29
10310;BME280;5200;43.236;27.986;2023-02-19T02:38:10;99798.59;;;11.21;62.81
10310;BME280;5200;43.236;27.986;2023-02-19T02:40:42;99760.84;;;11.03;63.00
10310;BME280;5200;43.236;27.986;2023-02-19T02:43:10;99766.78;;;11.05;62.70
10310;BME280;5200;43.236;27.986;2023-02-19T02:45:39;99772.88;;;11.15;62.68
10310;BME280;5200;43.236;27.986;2023-02-19T02:48:26;99806.44;;;11.31;62.30
10310;BME280;5200;43.236;27.986;2023-02-19T02:50:57;99793.56;;;11.28;62.24
10310;BME280;5200;43.236;27.986;2023-02-19T02:53:29;99803.28;;;11.27;61.77
10310;BME280;5200;43.236;27.986;2023-02-19T02:56:16;99807.72;;;11.27;61.77
10310;BME280;5200;43.236;27.986;2023-02-19T02:58:45;99785.63;;;11.10;61.66
10310;BME280;5200;43.236;27.986;2023-02-19T03:01:17;99813.56;;;11.20;61.66
10310;BME280;5200;43.236;27.986;2023-02-19T03:04:05;99813.47;;;11.12;61.79
10310;BME280;5200;43.236;27.986;2023-02-19T03:06:35;99795.66;;;10.96;61.82
10310;BME280;5200;43.236;27.986;2023-02-19T03:09:08;99810.34;;;10.99;61.87
10310;BME280;5200;43.236;27.986;2023-02-19T03:11:38;99803.84;;;10.93;61.79
10310;BME280;5200;43.236;27.986;2023-02-19T03:14:26;99788.09;;;10.84;61.85
10310;BME280;5200;43.236;27.986;2023-02-19T03:17:18;99820.31;;;10.95;61.31
10310;BME280;5200;43.236;27.986;2023-02-19T03:20:08;99809.78;;;10.95;61.29
10310;BME280;5200;43.236;27.986;2023-02-19T03:22:37;99761.09;;;10.82;61.05
10310;BME280;5200;43.236;27.986;2023-02-19T03:25:09;99807.22;;;11.13;60.31
10310;BME280;5200;43.236;27.986;2023-02-19T03:27:56;99812.44;;;11.23;60.22
10310;BME280;5200;43.236;27.986;2023-02-19T03:30:28;99809.38;;;11.28;59.94
10310;BME280;5200;43.236;27.986;2023-02-19T03:32:59;99792.81;;;11.17;59.70
10310;BME280;5200;43.236;27.986;2023-02-19T03:35:29;99797.38;;;11.15;59.52
10310;BME280;5200;43.236;27.986;2023-02-19T03:38:01;99807.19;;;11.23;59.49
10310;BME280;5200;43.236;27.986;2023-02-19T03:40:33;99794.50;;;11.09;59.15
10310;BME280;5200;43.236;27.986;2023-02-19T03:43:11;99769.34;;;10.96;59.21
10310;BME280;5200;43.236;27.986;2023-02-19T03:45:46;99808.84;;;11.24;58.91
10310;BME280;5200;43.236;27.986;2023-02-19T03:48:24;99784.28;;;11.06;59.11
10310;BME280;5200;43.236;27.986;2023-02-19T03:51:12;99819.66;;;11.21;58.51
10310;BME280;5200;43.236;27.986;2023-02-19T03:53:49;99818.00;;;11.20;59.07
10310;BME280;5200;43.236;27.986;2023-02-19T03:56:22;99809.56;;;11.16;58.58
10310;BME280;5200;43.236;27.986;2023-02-19T03:58:57;99819.69;;;11.11;58.80
10310;BME280;5200;43.236;27.986;2023-02-19T04:01:27;99821.38;;;11.12;58.15
10310;BME280;5200;43.236;27.986;2023-02-19T04:03:59;99813.09;;;10.97;58.34
10310;BME280;5200;43.236;27.986;2023-02-19T04:06:31;99835.16;;;10.96;58.13
10310;BME280;5200;43.236;27.986;2023-02-19T04:09:02;99838.19;;;11.02;57.91
10310;BME280;5200;43.236;27.986;2023-02-19T04:11:30;99848.56;;;11.03;57.28
10310;BME280;5200;43.236;27.986;2023-02-19T04:14:01;99865.69;;;11.17;57.44
10310;BME280;5200;43.236;27.986;2023-02-19T04:16:29;99877.34;;;11.14;57.59
10310;BME280;5200;43.236;27.986;2023-02-19T04:19:04;99870.56;;;11.12;56.81
10310;BME280;5200;43.236;27.986;2023-02-19T04:21:33;99864.34;;;11.13;56.70
10310;BME280;5200;43.236;27.986;2023-02-19T04:24:05;99828.22;;;10.95;56.59
10310;BME280;5200;43.236;27.986;2023-02-19T04:26:34;99828.38;;;10.94;56.23
10310;BME280;5200;43.236;27.986;2023-02-19T04:29:02;99833.75;;;11.02;56.20
10310;BME280;5200;43.236;27.986;2023-02-19T04:31:30;99848.94;;;11.18;56.30
10310;BME280;5200;43.236;27.986;2023-02-19T04:34:01;99836.72;;;11.17;55.81
10310;BME280;5200;43.236;27.986;2023-02-19T04:36:31;99797.00;;;11.00;55.83
10310;BME280;5200;43.236;27.986;2023-02-19T04:38:58;99827.16;;;11.16;55.59
10310;BME280;5200;43.236;27.986;2023-02-19T04:41:25;99844.88;;;11.24;55.25
10310;BME280;5200;43.236;27.986;2023-02-19T04:43:52;99794.00;;;10.95;55.30
10310;BME280;5200;43.236;27.986;2023-02-19T04:46:18;99853.19;;;11.19;56.01
10310;BME280;5200;43.236;27.986;2023-02-19T04:48:45;99838.31;;;11.00;55.66
10310;BME280;5200;43.236;27.986;2023-02-19T04:51:13;99830.28;;;11.02;55.66
10310;BME280;5200;43.236;27.986;2023-02-19T04:53:40;99860.03;;;11.12;55.75
10310;BME280;5200;43.236;27.986;2023-02-19T04:56:09;99832.34;;;10.98;55.15
10310;BME280;5200;43.236;27.986;2023-02-19T04:58:37;99838.75;;;10.95;54.71
10310;BME280;5200;43.236;27.986;2023-02-19T05:01:05;99871.38;;;11.22;54.53
10310;BME280;5200;43.236;27.986;2023-02-19T05:03:32;99879.53;;;11.19;54.49
10310;BME280;5200;43.236;27.986;2023-02-19T05:06:01;99889.00;;;11.12;54.63
10310;BME280;5200;43.236;27.986;2023-02-19T05:08:29;99880.81;;;11.15;54.69
10310;BME280;5200;43.236;27.986;2023-02-19T05:10:57;99877.50;;;11.13;54.54
10310;BME280;5200;43.236;27.986;2023-02-19T05:13:24;99855.81;;;10.91;54.81
10310;BME280;5200;43.236;27.986;2023-02-19T05:15:56;99849.56;;;10.92;54.88
10310;BME280;5200;43.236;27.986;2023-02-19T05:18:23;99880.44;;;11.00;54.77
10310;BME280;5200;43.236;27.986;2023-02-19T05:20:50;99872.94;;;11.05;54.67
10310;BME280;5200;43.236;27.986;2023-02-19T05:23:17;99904.75;;;11.31;54.20
10310;BME280;5200;43.236;27.986;2023-02-19T05:25:45;99912.47;;;11.33;54.05
10310;BME280;5200;43.236;27.986;2023-02-19T05:28:12;99947.09;;;11.48;53.78
10310;BME280;5200;43.236;27.986;2023-02-19T05:30:46;99956.38;;;11.42;53.69
10310;BME280;5200;43.236;27.986;2023-02-19T05:33:14;99961.56;;;11.34;53.83
10310;BME280;5200;43.236;27.986;2023-02-19T05:35:42;99970.13;;;11.46;54.05
10310;BME280;5200;43.236;27.986;2023-02-19T05:38:10;99956.53;;;11.40;53.61
10310;BME280;5200;43.236;27.986;2023-02-19T05:40:37;99988.13;;;11.78;53.31
10310;BME280;5200;43.236;27.986;2023-02-19T05:43:06;99964.44;;;11.88;52.65
10310;BME280;5200;43.236;27.986;2023-02-19T05:45:33;99971.38;;;12.07;52.57
10310;BME280;5200;43.236;27.986;2023-02-19T05:48:01;99943.09;;;11.99;52.13
10310;BME280;5200;43.236;27.986;2023-02-19T05:50:28;99950.75;;;12.02;51.97
10310;BME280;5200;43.236;27.986;2023-02-19T05:52:55;99977.00;;;12.39;51.36
10310;BME280;5200;43.236;27.986;2023-02-19T05:55:22;99972.94;;;12.45;51.53
10310;BME280;5200;43.236;27.986;2023-02-19T05:57:49;99984.22;;;12.55;51.06
10310;BME280;5200;43.236;27.986;2023-02-19T06:00:18;99990.56;;;12.62;51.24
10310;BME280;5200;43.236;27.986;2023-02-19T06:02:45;99991.78;;;12.68;50.88
10310;BME280;5200;43.236;27.986;2023-02-19T06:05:13;99969.16;;;12.65;50.50
10310;BME280;5200;43.236;27.986;2023-02-19T06:07:40;99995.97;;;12.79;50.83
10310;BME280;5200;43.236;27.986;2023-02-19T06:10:08;99990.94;;;12.85;50.81
10310;BME280;5200;43.236;27.986;2023-02-19T06:12:38;99991.88;;;13.02;50.40
10310;BME280;5200;43.236;27.986;2023-02-19T06:15:05;99969.94;;;13.02;50.79
10310;BME280;5200;43.236;27.986;2023-02-19T06:17:34;99962.69;;;13.04;49.89
10310;BME280;5200;43.236;27.986;2023-02-19T06:20:01;100005.66;;;13.32;49.38
10310;BME280;5200;43.236;27.986;2023-02-19T06:22:28;99991.09;;;13.28;49.61
10310;BME280;5200;43.236;27.986;2023-02-19T06:24:54;100000.84;;;13.53;49.11
10310;BME280;5200;43.236;27.986;2023-02-19T06:27:21;99996.94;;;13.66;49.40
10310;BME280;5200;43.236;27.986;2023-02-19T06:29:48;99986.06;;;13.69;49.18
10310;BME280;5200;43.236;27.986;2023-02-19T06:32:15;99987.38;;;13.73;48.71
10310;BME280;5200;43.236;27.986;2023-02-19T06:34:43;99963.09;;;13.78;48.81
10310;BME280;5200;43.236;27.986;2023-02-19T06:37:10;99964.44;;;13.82;48.55
10310;BME280;5200;43.236;27.986;2023-02-19T06:39:37;99965.06;;;13.67;48.83
10310;BME280;5200;43.236;27.986;2023-02-19T06:42:04;99984.13;;;13.87;48.34
10310;BME280;5200;43.236;27.986;2023-02-19T06:44:31;99999.91;;;13.97;48.20
10310;BME280;5200;43.236;27.986;2023-02-19T06:46:57;100012.75;;;13.92;48.27
10310;BME280;5200;43.236;27.986;2023-02-19T06:49:24;100016.25;;;14.01;48.40
10310;BME280;5200;43.236;27.986;2023-02-19T06:51:53;100012.97;;;14.07;47.99
10310;BME280;5200;43.236;27.986;2023-02-19T06:54:19;100028.84;;;14.07;48.10
10310;BME280;5200;43.236;27.986;2023-02-19T06:56:46;100019.56;;;14.03;48.15
10310;BME280;5200;43.236;27.986;2023-02-19T06:59:14;99977.34;;;13.85;49.04
10310;BME280;5200;43.236;27.986;2023-02-19T07:01:42;100013.13;;;13.97;48.94
10310;BME280;5200;43.236;27.986;2023-02-19T07:04:10;99982.16;;;13.89;48.91
10310;BME280;5200;43.236;27.986;2023-02-19T07:06:37;100001.13;;;14.19;48.61
10310;BME280;5200;43.236;27.986;2023-02-19T07:09:06;99982.88;;;14.08;48.29
10310;BME280;5200;43.236;27.986;2023-02-19T07:11:34;99975.13;;;14.06;48.28
10310;BME280;5200;43.236;27.986;2023-02-19T07:14:03;100020.63;;;14.18;48.42
10310;BME280;5200;43.236;27.986;2023-02-19T07:16:32;100024.59;;;14.22;48.64
10310;BME280;5200;43.236;27.986;2023-02-19T07:18:59;100042.50;;;14.36;49.18
10310;BME280;5200;43.236;27.986;2023-02-19T07:21:27;100023.66;;;14.40;48.77
10310;BME280;5200;43.236;27.986;2023-02-19T07:23:54;100035.97;;;14.57;48.09
10310;BME280;5200;43.236;27.986;2023-02-19T07:26:24;100029.34;;;14.69;48.12
10310;BME280;5200;43.236;27.986;2023-02-19T07:28:51;99998.25;;;14.63;47.84
10310;BME280;5200;43.236;27.986;2023-02-19T07:31:19;100000.91;;;14.79;47.46
10310;BME280;5200;43.236;27.986;2023-02-19T07:33:47;100043.13;;;14.97;47.24
10310;BME280;5200;43.236;27.986;2023-02-19T07:36:15;100050.75;;;15.09;47.33
10310;BME280;5200;43.236;27.986;2023-02-19T07:38:43;100055.41;;;15.15;46.88
10310;BME280;5200;43.236;27.986;2023-02-19T07:41:10;100050.25;;;15.30;46.21
10310;BME280;5200;43.236;27.986;2023-02-19T07:43:39;100043.91;;;15.47;45.70
10310;BME280;5200;43.236;27.986;2023-02-19T07:46:08;100049.88;;;15.57;45.08
10310;BME280;5200;43.236;27.986;2023-02-19T07:48:36;100034.97;;;15.48;45.54
10310;BME280;5200;43.236;27.986;2023-02-19T07:51:04;100047.22;;;15.74;45.27
10310;BME280;5200;43.236;27.986;2023-02-19T07:53:32;100036.22;;;15.93;44.70
10310;BME280;5200;43.236;27.986;2023-02-19T07:56:00;100021.53;;;16.14;44.02
10310;BME280;5200;43.236;27.986;2023-02-19T07:58:27;100059.22;;;16.40;43.76
10310;BME280;5200;43.236;27.986;2023-02-19T08:01:14;100052.81;;;16.58;43.52
10310;BME280;5200;43.236;27.986;2023-02-19T08:03:42;100043.91;;;16.74;43.11
10310;BME280;5200;43.236;27.986;2023-02-19T08:06:09;100041.69;;;16.85;43.01
10310;BME280;5200;43.236;27.986;2023-02-19T08:08:36;100043.16;;;16.88;42.89
10310;BME280;5200;43.236;27.986;2023-02-19T08:11:05;100020.06;;;16.88;42.55
10310;BME280;5200;43.236;27.986;2023-02-19T08:13:50;100019.59;;;17.08;42.34
10310;BME280;5200;43.236;27.986;2023-02-19T08:16:19;100029.00;;;17.33;42.21
10310;BME280;5200;43.236;27.986;2023-02-19T08:18:47;100007.91;;;17.32;41.67
10310;BME280;5200;43.236;27.986;2023-02-19T08:21:14;100025.06;;;17.44;41.68
10310;BME280;5200;43.236;27.986;2023-02-19T08:23:43;100023.59;;;17.42;41.91
10310;BME280;5200;43.236;27.986;2023-02-19T08:26:11;100010.56;;;17.47;41.79
10310;BME280;5200;43.236;27.986;2023-02-19T08:28:38;100002.22;;;17.35;41.70
10310;BME280;5200;43.236;27.986;2023-02-19T08:31:06;100033.31;;;17.49;41.92
10310;BME280;5200;43.236;27.986;2023-02-19T08:33:36;99991.75;;;17.19;42.08
10310;BME280;5200;43.236;27.986;2023-02-19T08:36:05;100019.63;;;17.38;42.23
10310;BME280;5200;43.236;27.986;2023-02-19T08:38:34;100017.84;;;17.38;42.07
10310;BME280;5200;43.236;27.986;2023-02-19T08:41:05;99987.94;;;17.36;41.76
10310;BME280;5200;43.236;27.986;2023-02-19T08:43:32;100008.94;;;17.46;41.87
10310;BME280;5200;43.236;27.986;2023-02-19T08:45:59;100007.25;;;17.45;42.15
10310;BME280;5200;43.236;27.986;2023-02-19T08:48:27;100005.34;;;17.53;42.23
10310;BME280;5200;43.236;27.986;2023-02-19T08:50:56;100012.50;;;17.68;41.89
10310;BME280;5200;43.236;27.986;2023-02-19T08:53:24;100012.72;;;17.81;41.94
10310;BME280;5200;43.236;27.986;2023-02-19T08:55:51;100004.97;;;18.01;41.41
10310;BME280;5200;43.236;27.986;2023-02-19T08:58:18;99976.25;;;18.11;41.21
10310;BME280;5200;43.236;27.986;2023-02-19T09:00:45;99986.00;;;18.04;40.96
10310;BME280;5200;43.236;27.986;2023-02-19T09:03:11;99996.91;;;18.09;41.14
10310;BME280;5200;43.236;27.986;2023-02-19T09:05:39;99980.75;;;17.96;41.17
10310;BME280;5200;43.236;27.986;2023-02-19T09:08:07;99972.56;;;18.12;41.12
10310;BME280;5200;43.236;27.986;2023-02-19T09:10:34;100006.47;;;18.40;40.63
10310;BME280;5200;43.236;27.986;2023-02-19T09:13:01;99981.38;;;18.49;40.15
10310;BME280;5200;43.236;27.986;2023-02-19T09:15:28;100005.44;;;18.41;40.01
10310;BME280;5200;43.236;27.986;2023-02-19T09:17:56;100003.56;;;18.35;40.17
10310;BME280;5200;43.236;27.986;2023-02-19T09:20:22;100013.38;;;18.34;40.49
10310;BME280;5200;43.236;27.986;2023-02-19T09:22:49;100005.50;;;18.26;40.45
10310;BME280;5200;43.236;27.986;2023-02-19T09:25:23;100022.66;;;18.24;40.56
10310;BME280;5200;43.236;27.986;2023-02-19T09:27:53;100030.53;;;18.32;40.82
10310;BME280;5200;43.236;27.986;2023-02-19T09:30:20;100004.06;;;18.45;40.18
10310;BME280;5200;43.236;27.986;2023-02-19T09:32:47;100016.50;;;18.59;40.51
10310;BME280;5200;43.236;27.986;2023-02-19T09:35:14;100031.13;;;18.85;39.71
10310;BME280;5200;43.236;27.986;2023-02-19T09:37:40;100039.00;;;18.93;39.46
10310;BME280;5200;43.236;27.986;2023-02-19T09:40:08;100036.38;;;19.00;39.25
10310;BME280;5200;43.236;27.986;2023-02-19T09:42:38;100037.97;;;19.16;39.44
10310;BME280;5200;43.236;27.986;2023-02-19T09:45:12;100039.56;;;19.38;39.22
10310;BME280;5200;43.236;27.986;2023-02-19T09:47:42;100022.81;;;19.51;38.27
10310;BME280;5200;43.236;27.986;2023-02-19T09:50:12;100009.31;;;19.25;38.47
10310;BME280;5200;43.236;27.986;2023-02-19T09:52:44;100019.25;;;19.37;38.92
10310;BME280;5200;43.236;27.986;2023-02-19T09:55:14;100022.06;;;19.29;38.78
10310;BME280;5200;43.236;27.986;2023-02-19T09:57:44;100019.81;;;19.05;39.35
10310;BME280;5200;43.236;27.986;2023-02-19T10:00:20;100010.09;;;18.97;39.63
10310;BME280;5200;43.236;27.986;2023-02-19T10:02:50;100007.09;;;19.07;39.83
10310;BME280;5200;43.236;27.986;2023-02-19T10:05:17;100004.78;;;19.25;39.57
10310;BME280;5200;43.236;27.986;2023-02-19T10:07:45;99988.41;;;19.28;38.90
10310;BME280;5200;43.236;27.986;2023-02-19T10:10:26;100016.34;;;19.32;39.09
10310;BME280;5200;43.236;27.986;2023-02-19T10:13:08;100002.59;;;19.35;38.63
10310;BME280;5200;43.236;27.986;2023-02-19T10:15:40;99981.41;;;19.27;38.42
10310;BME280;5200;43.236;27.986;2023-02-19T10:18:10;100009.25;;;19.18;38.68
10310;BME280;5200;43.236;27.986;2023-02-19T10:20:37;99994.06;;;19.18;38.54
10310;BME280;5200;43.236;27.986;2023-02-19T10:23:06;99988.59;;;18.98;38.37
10310;BME280;5200;43.236;27.986;2023-02-19T10:25:39;99990.91;;;18.80;38.63
10310;BME280;5200;43.236;27.986;2023-02-19T10:28:13;99978.69;;;18.71;38.27
10310;BME280;5200;43.236;27.986;2023-02-19T10:30:42;99984.91;;;18.35;39.05
10310;BME280;5200;43.236;27.986;2023-02-19T10:33:10;99978.28;;;18.31;39.43
10310;BME280;5200;43.236;27.986;2023-02-19T10:35:51;99968.03;;;18.49;39.31
10310;BME280;5200;43.236;27.986;2023-02-19T10:38:20;99971.34;;;18.51;38.79
10310;BME280;5200;43.236;27.986;2023-02-19T10:40:51;99965.56;;;18.48;38.79
10310;BME280;5200;43.236;27.986;2023-02-19T10:43:26;99973.38;;;18.49;38.93
10310;BME280;5200;43.236;27.986;2023-02-19T10:46:01;99969.88;;;18.70;38.64
10310;BME280;5200;43.236;27.986;2023-02-19T10:48:31;99960.44;;;18.68;38.79
10310;BME280;5200;43.236;27.986;2023-02-19T10:51:02;99968.03;;;18.49;39.03
10310;BME280;5200;43.236;27.986;2023-02-19T10:53:42;99940.75;;;18.26;39.04
10310;BME280;5200;43.236;27.986;2023-02-19T10:56:11;99946.34;;;18.52;38.78
10310;BME280;5200;43.236;27.986;2023-02-19T10:58:41;99937.03;;;18.63;39.07
10310;BME280;5200;43.236;27.986;2023-02-19T11:01:18;99928.06;;;18.71;38.76
10310;BME280;5200;43.236;27.986;2023-02-19T11:03:51;99943.00;;;18.72;38.27
10310;BME280;5200;43.236;27.986;2023-02-19T11:06:19;99878.69;;;18.47;38.94
10310;BME280;5200;43.236;27.986;2023-02-19T11:08:58;99879.28;;;18.70;38.75
10310;BME280;5200;43.236;27.986;2023-02-19T11:11:34;99911.63;;;19.17;38.34
10310;BME280;5200;43.236;27.986;2023-02-19T11:14:14;99919.97;;;19.49;38.39
10310;BME280;5200;43.236;27.986;2023-02-19T11:16:44;99898.22;;;19.45;38.05
10310;BME280;5200;43.236;27.986;2023-02-19T11:19:31;99916.69;;;19.47;38.18
10310;BME280;5200;43.236;27.986;2023-02-19T11:22:01;99908.22;;;19.36;38.32
10310;BME280;5200;43.236;27.986;2023-02-19T11:24:31;99918.75;;;19.51;38.17
10310;BME280;5200;43.236;27.986;2023-02-19T11:27:00;99887.41;;;19.60;37.84
10310;BME280;5200;43.236;27.986;2023-02-19T11:29:30;99903.81;;;19.57;37.43
10310;BME280;5200;43.236;27.986;2023-02-19T11:32:24;99901.50;;;19.40;37.94
10310;BME280;5200;43.236;27.986;2023-02-19T11:35:03;99909.69;;;19.39;38.04
10310;BME280;5200;43.236;27.986;2023-02-19T11:37:52;99909.88;;;19.37;38.36
10310;BME280;5200;43.236;27.986;2023-02-19T11:40:38;99918.28;;;19.34;38.40
10310;BME280;5200;43.236;27.986;2023-02-19T11:43:53;99916.03;;;19.03;38.80
10310;BME280;5200;43.236;27.986;2023-02-19T11:46:34;99912.06;;;18.71;39.76
10310;BME280;5200;43.236;27.986;2023-02-19T11:49:15;99909.03;;;18.52;40.14
10310;BME280;5200;43.236;27.986;2023-02-19T11:52:05;99915.00;;;18.54;40.47
10310;BME280;5200;43.236;27.986;2023-02-19T11:54:45;99899.50;;;18.65;40.24
10310;BME280;5200;43.236;27.986;2023-02-19T11:57:25;99870.34;;;18.56;40.32
10310;BME280;5200;43.236;27.986;2023-02-19T12:00:04;99883.78;;;18.70;39.96
10310;BME280;5200;43.236;27.986;2023-02-19T12:02:58;99882.94;;;18.69;40.00
10310;BME280;5200;43.236;27.986;2023-02-19T12:05:34;99862.84;;;18.67;40.08
10310;BME280;5200;43.236;27.986;2023-02-19T12:11:17;99870.50;;;18.27;40.67
10310;BME280;5200;43.236;27.986;2023-02-19T12:14:01;99864.03;;;18.36;41.15
10310;BME280;5200;43.236;27.986;2023-02-19T12:16:36;99858.13;;;18.41;40.27
10310;BME280;5200;43.236;27.986;2023-02-19T12:19:24;99864.84;;;18.36;40.19
10310;BME280;5200;43.236;27.986;2023-02-19T12:22:16;99855.47;;;18.41;39.97
10310;BME280;5200;43.236;27.986;2023-02-19T12:25:11;99873.69;;;18.37;39.94
10310;BME280;5200;43.236;27.986;2023-02-19T12:27:52;99861.75;;;18.33;39.97
10310;BME280;5200;43.236;27.986;2023-02-19T12:30:54;99861.47;;;18.49;39.99
10310;BME280;5200;43.236;27.986;2023-02-19T12:36:36;99833.97;;;18.42;39.80
10310;BME280;5200;43.236;27.986;2023-02-19T12:39:13;99845.53;;;18.28;40.03
10310;BME280;5200;43.236;27.986;2023-02-19T12:41:48;99837.66;;;18.20;40.22
10310;BME280;5200;43.236;27.986;2023-02-19T12:44:20;99848.47;;;18.11;40.61
10310;BME280;5200;43.236;27.986;2023-02-19T12:46:51;99860.75;;;18.12;40.75
10310;BME280;5200;43.236;27.986;2023-02-19T12:49:24;99856.69;;;18.16;40.73
10310;BME280;5200;43.236;27.986;2023-02-19T12:51:55;99860.16;;;18.17;40.77
10310;BME280;5200;43.236;27.986;2023-02-19T12:54:26;99845.78;;;18.11;40.39
10310;BME280;5200;43.236;27.986;2023-02-19T12:56:59;99842.34;;;17.96;40.71
10310;BME280;5200;43.236;27.986;2023-02-19T12:59:30;99831.91;;;17.80;40.72
10310;BME280;5200;43.236;27.986;2023-02-19T13:02:03;99829.13;;;17.66;41.00
10310;BME280;5200;43.236;27.986;2023-02-19T13:04:38;99849.06;;;17.56;41.30
10310;BME280;5200;43.236;27.986;2023-02-19T13:07:12;99831.91;;;17.58;41.46
10310;BME280;5200;43.236;27.986;2023-02-19T13:09:45;99811.97;;;17.32;41.48
10310;BME280;5200;43.236;27.986;2023-02-19T13:12:18;99810.59;;;17.37;41.89
10310;BME280;5200;43.236;27.986;2023-02-19T13:14:59;99829.38;;;17.50;41.63
10310;BME280;5200;43.236;27.986;2023-02-19T13:17:33;99812.78;;;17.33;41.54
10310;BME280;5200;43.236;27.986;2023-02-19T13:20:06;99849.44;;;17.52;41.71
10310;BME280;5200;43.236;27.986;2023-02-19T13:22:44;99839.25;;;17.56;41.76
10310;BME280;5200;43.236;27.986;2023-02-19T13:25:39;99833.91;;;17.56;41.79
10310;BME280;5200;43.236;27.986;2023-02-19T13:28:21;99836.97;;;17.53;41.80
10310;BME280;5200;43.236;27.986;2023-02-19T13:31:02;99825.16;;;17.41;41.60
10310;BME280;5200;43.236;27.986;2023-02-19T13:33:42;99829.63;;;17.40;41.84